sensor_id;sensor_type;location;lat;lon;timestamp;temperature;humidity
46137;DHT22;31871;49.418;8.752;2022-09-01T00:01:22;18.50;99.90
46137;DHT22;31871;49.418;8.752;2022-09-01T00:03:51;18.50;99.90
46137;DHT22;31871;49.418;8.752;2022-09-01T00:06:18;18.60;99.90
46137;DHT22;31871;49.418;8.752;2022-09-01T00:08:52;18.50;99.90
46137;DHT22;31871;49.418;8.752;2022-09-01T00:11:19;18.50;99.90
46137;DHT22;31871;49.418;8.752;2022-09-01T00:13:45;18.50;99.90
46137;DHT22;31871;49.418;8.752;2022-09-01T00:16:11;18.50;99.90
46137;DHT22;31871;49.418;8.752;2022-09-01T00:18:40;18.50;99.90
46137;DHT22;31871;49.418;8.752;2022-09-01T00:21:07;18.60;99.90
46137;DHT22;31871;49.418;8.752;2022-09-01T00:23:33;18.60;99.90
46137;DHT22;31871;49.418;8.752;2022-09-01T00:25:58;18.60;99.90
46137;DHT22;31871;49.418;8.752;2022-09-01T00:28:24;18.60;99.90
46137;DHT22;31871;49.418;8.752;2022-09-01T00:30:50;18.60;99.90
46137;DHT22;31871;49.418;8.752;2022-09-01T00:33:15;18.60;99.90
46137;DHT22;31871;49.418;8.752;2022-09-01T00:35:41;18.50;99.90
46137;DHT22;31871;49.418;8.752;2022-09-01T00:38:06;18.50;99.90
46137;DHT22;31871;49.418;8.752;2022-09-01T00:40:32;18.40;99.90
46137;DHT22;31871;49.418;8.752;2022-09-01T00:42:58;18.40;99.90
46137;DHT22;31871;49.418;8.752;2022-09-01T00:45:25;18.40;99.90
46137;DHT22;31871;49.418;8.752;2022-09-01T00:47:50;18.30;99.90
46137;DHT22;31871;49.418;8.752;2022-09-01T00:50:17;18.30;99.90
46137;DHT22;31871;49.418;8.752;2022-09-01T00:52:51;18.20;99.90
46137;DHT22;31871;49.418;8.752;2022-09-01T00:55:24;18.20;99.90
46137;DHT22;31871;49.418;8.752;2022-09-01T00:57:50;18.20;99.90
46137;DHT22;31871;49.418;8.752;2022-09-01T01:00:20;18.20;99.90
46137;DHT22;31871;49.418;8.752;2022-09-01T01:02:48;18.20;99.90
46137;DHT22;31871;49.418;8.752;2022-09-01T01:05:14;18.30;99.90
46137;DHT22;31871;49.418;8.752;2022-09-01T01:07:41;18.20;99.90
46137;DHT22;31871;49.418;8.752;2022-09-01T01:10:09;18.20;99.90
46137;DHT22;31871;49.418;8.752;2022-09-01T01:12:37;18.10;99.90
46137;DHT22;31871;49.418;8.752;2022-09-01T01:15:06;18.20;99.90
46137;DHT22;31871;49.418;8.752;2022-09-01T01:17:32;18.20;99.90
46137;DHT22;31871;49.418;8.752;2022-09-01T01:19:57;18.20;99.90
46137;DHT22;31871;49.418;8.752;2022-09-01T01:25:47;18.10;99.90
46137;DHT22;31871;49.418;8.752;2022-09-01T01:30:48;18.20;99.90
46137;DHT22;31871;49.418;8.752;2022-09-01T01:33:17;18.10;99.90
46137;DHT22;31871;49.418;8.752;2022-09-01T01:35:43;18.10;99.90
46137;DHT22;31871;49.418;8.752;2022-09-01T01:38:09;18.00;99.90
46137;DHT22;31871;49.418;8.752;2022-09-01T01:40:36;18.10;99.90
46137;DHT22;31871;49.418;8.752;2022-09-01T01:43:03;18.10;99.90
46137;DHT22;31871;49.418;8.752;2022-09-01T01:45:29;18.20;99.90
46137;DHT22;31871;49.418;8.752;2022-09-01T01:47:55;18.20;99.90
46137;DHT22;31871;49.418;8.752;2022-09-01T01:50:27;18.20;99.90
46137;DHT22;31871;49.418;8.752;2022-09-01T01:52:55;18.20;99.90
46137;DHT22;31871;49.418;8.752;2022-09-01T01:55:24;18.20;99.90
46137;DHT22;31871;49.418;8.752;2022-09-01T01:57:53;18.10;99.90
46137;DHT22;31871;49.418;8.752;2022-09-01T02:00:23;18.00;99.90
46137;DHT22;31871;49.418;8.752;2022-09-01T02:02:50;18.00;99.90
46137;DHT22;31871;49.418;8.752;2022-09-01T02:05:21;18.00;99.90
46137;DHT22;31871;49.418;8.752;2022-09-01T02:07:53;18.00;99.90
46137;DHT22;31871;49.418;8.752;2022-09-01T02:10:31;18.00;99.90
46137;DHT22;31871;49.418;8.752;2022-09-01T02:13:03;17.90;99.90
46137;DHT22;31871;49.418;8.752;2022-09-01T02:15:35;17.80;99.90
46137;DHT22;31871;49.418;8.752;2022-09-01T02:18:10;17.70;99.90
46137;DHT22;31871;49.418;8.752;2022-09-01T02:20:37;17.50;99.90
46137;DHT22;31871;49.418;8.752;2022-09-01T02:23:03;17.50;99.90
46137;DHT22;31871;49.418;8.752;2022-09-01T02:25:37;17.50;99.90
46137;DHT22;31871;49.418;8.752;2022-09-01T02:28:04;17.50;99.90
46137;DHT22;31871;49.418;8.752;2022-09-01T02:30:30;17.40;99.90
46137;DHT22;31871;49.418;8.752;2022-09-01T02:32:58;17.40;99.90
46137;DHT22;31871;49.418;8.752;2022-09-01T02:35:24;17.50;99.90
46137;DHT22;31871;49.418;8.752;2022-09-01T02:37:59;17.50;99.90
46137;DHT22;31871;49.418;8.752;2022-09-01T02:40:26;17.50;99.90
46137;DHT22;31871;49.418;8.752;2022-09-01T02:42:55;17.50;99.90
46137;DHT22;31871;49.418;8.752;2022-09-01T02:45:21;17.50;99.90
46137;DHT22;31871;49.418;8.752;2022-09-01T02:47:49;17.50;99.90
46137;DHT22;31871;49.418;8.752;2022-09-01T02:50:16;17.40;99.90
46137;DHT22;31871;49.418;8.752;2022-09-01T02:52:46;17.30;99.90
46137;DHT22;31871;49.418;8.752;2022-09-01T02:55:14;17.30;99.90
46137;DHT22;31871;49.418;8.752;2022-09-01T02:57:43;17.30;99.90
46137;DHT22;31871;49.418;8.752;2022-09-01T03:00:10;17.20;99.90
46137;DHT22;31871;49.418;8.752;2022-09-01T03:02:49;17.20;99.90
46137;DHT22;31871;49.418;8.752;2022-09-01T03:05:19;17.20;99.90
46137;DHT22;31871;49.418;8.752;2022-09-01T03:07:51;17.20;99.90
46137;DHT22;31871;49.418;8.752;2022-09-01T03:10:24;17.20;99.90
46137;DHT22;31871;49.418;8.752;2022-09-01T03:12:53;17.20;99.90
46137;DHT22;31871;49.418;8.752;2022-09-01T03:15:19;17.20;99.90
46137;DHT22;31871;49.418;8.752;2022-09-01T03:17:46;17.20;99.90
46137;DHT22;31871;49.418;8.752;2022-09-01T03:20:13;17.20;99.90
46137;DHT22;31871;49.418;8.752;2022-09-01T03:22:39;17.20;99.90
46137;DHT22;31871;49.418;8.752;2022-09-01T03:25:05;17.10;99.90
46137;DHT22;31871;49.418;8.752;2022-09-01T03:27:31;17.10;99.90
46137;DHT22;31871;49.418;8.752;2022-09-01T03:29:57;17.10;99.90
46137;DHT22;31871;49.418;8.752;2022-09-01T03:32:23;17.00;99.90
46137;DHT22;31871;49.418;8.752;2022-09-01T03:34:48;17.00;99.90
46137;DHT22;31871;49.418;8.752;2022-09-01T03:37:15;17.10;99.90
46137;DHT22;31871;49.418;8.752;2022-09-01T03:39:42;17.10;99.90
46137;DHT22;31871;49.418;8.752;2022-09-01T03:42:07;17.10;99.90
46137;DHT22;31871;49.418;8.752;2022-09-01T03:44:36;17.10;99.90
46137;DHT22;31871;49.418;8.752;2022-09-01T03:47:04;17.00;99.90
46137;DHT22;31871;49.418;8.752;2022-09-01T03:49:35;17.00;99.90
46137;DHT22;31871;49.418;8.752;2022-09-01T03:52:03;17.00;99.90
46137;DHT22;31871;49.418;8.752;2022-09-01T03:54:29;17.10;99.90
46137;DHT22;31871;49.418;8.752;2022-09-01T03:56:57;17.10;99.90
46137;DHT22;31871;49.418;8.752;2022-09-01T03:59:24;17.20;99.90
46137;DHT22;31871;49.418;8.752;2022-09-01T04:01:50;17.10;99.90
46137;DHT22;31871;49.418;8.752;2022-09-01T04:04:15;17.10;99.90
46137;DHT22;31871;49.418;8.752;2022-09-01T04:06:43;17.00;99.90
46137;DHT22;31871;49.418;8.752;2022-09-01T04:09:10;17.00;99.90
46137;DHT22;31871;49.418;8.752;2022-09-01T04:11:37;17.00;99.90
46137;DHT22;31871;49.418;8.752;2022-09-01T04:14:04;16.90;99.90
46137;DHT22;31871;49.418;8.752;2022-09-01T04:16:32;16.90;99.90
46137;DHT22;31871;49.418;8.752;2022-09-01T04:19:18;16.90;99.90
46137;DHT22;31871;49.418;8.752;2022-09-01T04:21:46;16.80;99.90
46137;DHT22;31871;49.418;8.752;2022-09-01T04:24:15;16.80;99.90
46137;DHT22;31871;49.418;8.752;2022-09-01T04:26:41;16.80;99.90
46137;DHT22;31871;49.418;8.752;2022-09-01T04:29:07;16.80;99.90
46137;DHT22;31871;49.418;8.752;2022-09-01T04:31:35;16.90;99.90
46137;DHT22;31871;49.418;8.752;2022-09-01T04:34:03;16.80;99.90
46137;DHT22;31871;49.418;8.752;2022-09-01T04:36:35;16.80;99.90
46137;DHT22;31871;49.418;8.752;2022-09-01T04:39:03;16.70;99.90
46137;DHT22;31871;49.418;8.752;2022-09-01T04:41:35;16.80;99.90
46137;DHT22;31871;49.418;8.752;2022-09-01T04:44:02;16.70;99.90
46137;DHT22;31871;49.418;8.752;2022-09-01T04:46:30;16.60;99.90
46137;DHT22;31871;49.418;8.752;2022-09-01T04:48:57;16.40;99.90
46137;DHT22;31871;49.418;8.752;2022-09-01T04:51:24;16.40;99.90
46137;DHT22;31871;49.418;8.752;2022-09-01T04:53:53;16.50;99.90
46137;DHT22;31871;49.418;8.752;2022-09-01T04:56:20;16.50;99.90
46137;DHT22;31871;49.418;8.752;2022-09-01T04:58:48;16.50;99.90
46137;DHT22;31871;49.418;8.752;2022-09-01T05:01:22;16.50;99.90
46137;DHT22;31871;49.418;8.752;2022-09-01T05:03:49;16.50;99.90
46137;DHT22;31871;49.418;8.752;2022-09-01T05:06:21;16.50;99.90
46137;DHT22;31871;49.418;8.752;2022-09-01T05:08:47;16.50;99.90
46137;DHT22;31871;49.418;8.752;2022-09-01T05:11:14;16.40;99.90
46137;DHT22;31871;49.418;8.752;2022-09-01T05:13:47;16.40;99.90
46137;DHT22;31871;49.418;8.752;2022-09-01T05:16:15;16.40;99.90
46137;DHT22;31871;49.418;8.752;2022-09-01T05:18:42;16.40;99.90
46137;DHT22;31871;49.418;8.752;2022-09-01T05:21:13;16.40;99.90
46137;DHT22;31871;49.418;8.752;2022-09-01T05:23:41;16.40;99.90
46137;DHT22;31871;49.418;8.752;2022-09-01T05:26:27;16.40;99.90
46137;DHT22;31871;49.418;8.752;2022-09-01T05:28:58;16.40;99.90
46137;DHT22;31871;49.418;8.752;2022-09-01T05:31:27;16.40;99.90
46137;DHT22;31871;49.418;8.752;2022-09-01T05:33:54;16.40;99.90
46137;DHT22;31871;49.418;8.752;2022-09-01T05:36:23;16.40;99.90
46137;DHT22;31871;49.418;8.752;2022-09-01T05:38:49;16.40;99.90
46137;DHT22;31871;49.418;8.752;2022-09-01T05:41:17;16.40;99.90
46137;DHT22;31871;49.418;8.752;2022-09-01T05:43:46;16.40;99.90
46137;DHT22;31871;49.418;8.752;2022-09-01T05:46:15;16.40;99.90
46137;DHT22;31871;49.418;8.752;2022-09-01T05:48:42;16.50;99.90
46137;DHT22;31871;49.418;8.752;2022-09-01T05:51:10;16.50;99.90
46137;DHT22;31871;49.418;8.752;2022-09-01T05:53:39;16.50;99.90
46137;DHT22;31871;49.418;8.752;2022-09-01T05:56:08;16.50;99.90
46137;DHT22;31871;49.418;8.752;2022-09-01T05:58:37;16.60;99.90
46137;DHT22;31871;49.418;8.752;2022-09-01T06:01:05;16.60;99.90
46137;DHT22;31871;49.418;8.752;2022-09-01T06:03:31;16.60;99.90
46137;DHT22;31871;49.418;8.752;2022-09-01T06:06:03;16.60;99.90
46137;DHT22;31871;49.418;8.752;2022-09-01T06:08:33;16.60;99.90
46137;DHT22;31871;49.418;8.752;2022-09-01T06:11:00;16.60;99.90
46137;DHT22;31871;49.418;8.752;2022-09-01T06:13:28;16.60;99.90
46137;DHT22;31871;49.418;8.752;2022-09-01T06:15:54;16.60;99.90
46137;DHT22;31871;49.418;8.752;2022-09-01T06:18:23;16.70;99.90
46137;DHT22;31871;49.418;8.752;2022-09-01T06:20:49;16.70;99.90
46137;DHT22;31871;49.418;8.752;2022-09-01T06:23:15;16.80;99.90
46137;DHT22;31871;49.418;8.752;2022-09-01T06:25:43;16.80;99.90
46137;DHT22;31871;49.418;8.752;2022-09-01T06:28:15;16.80;99.90
46137;DHT22;31871;49.418;8.752;2022-09-01T06:30:42;16.80;99.90
46137;DHT22;31871;49.418;8.752;2022-09-01T06:33:09;16.80;99.90
46137;DHT22;31871;49.418;8.752;2022-09-01T06:35:39;16.90;99.90
46137;DHT22;31871;49.418;8.752;2022-09-01T06:38:10;17.00;99.90
46137;DHT22;31871;49.418;8.752;2022-09-01T06:40:37;17.10;99.90
46137;DHT22;31871;49.418;8.752;2022-09-01T06:43:05;17.10;99.90
46137;DHT22;31871;49.418;8.752;2022-09-01T06:45:47;17.30;99.90
46137;DHT22;31871;49.418;8.752;2022-09-01T06:48:18;17.40;99.90
46137;DHT22;31871;49.418;8.752;2022-09-01T06:50:44;17.50;99.90
46137;DHT22;31871;49.418;8.752;2022-09-01T06:53:11;17.50;99.90
46137;DHT22;31871;49.418;8.752;2022-09-01T06:55:40;17.60;99.90
46137;DHT22;31871;49.418;8.752;2022-09-01T06:58:08;17.70;99.90
46137;DHT22;31871;49.418;8.752;2022-09-01T07:00:36;17.80;99.90
46137;DHT22;31871;49.418;8.752;2022-09-01T07:03:13;18.00;99.90
46137;DHT22;31871;49.418;8.752;2022-09-01T07:05:46;18.10;99.90
46137;DHT22;31871;49.418;8.752;2022-09-01T07:08:14;18.20;99.90
46137;DHT22;31871;49.418;8.752;2022-09-01T07:10:47;18.30;99.90
46137;DHT22;31871;49.418;8.752;2022-09-01T07:13:20;18.50;99.90
46137;DHT22;31871;49.418;8.752;2022-09-01T07:15:51;18.70;99.90
46137;DHT22;31871;49.418;8.752;2022-09-01T07:18:23;18.90;99.90
46137;DHT22;31871;49.418;8.752;2022-09-01T07:20:51;19.00;99.90
46137;DHT22;31871;49.418;8.752;2022-09-01T07:23:18;19.10;99.90
46137;DHT22;31871;49.418;8.752;2022-09-01T07:25:46;19.20;99.90
46137;DHT22;31871;49.418;8.752;2022-09-01T07:28:14;19.30;99.90
46137;DHT22;31871;49.418;8.752;2022-09-01T07:30:48;19.40;99.90
46137;DHT22;31871;49.418;8.752;2022-09-01T07:33:15;19.40;99.90
46137;DHT22;31871;49.418;8.752;2022-09-01T07:35:43;19.60;99.90
46137;DHT22;31871;49.418;8.752;2022-09-01T07:38:09;19.60;99.90
46137;DHT22;31871;49.418;8.752;2022-09-01T07:40:36;19.60;99.90
46137;DHT22;31871;49.418;8.752;2022-09-01T07:43:05;19.70;99.90
46137;DHT22;31871;49.418;8.752;2022-09-01T07:45:33;19.70;99.90
46137;DHT22;31871;49.418;8.752;2022-09-01T07:48:00;19.70;99.90
46137;DHT22;31871;49.418;8.752;2022-09-01T07:50:27;19.70;99.90
46137;DHT22;31871;49.418;8.752;2022-09-01T07:52:55;19.80;99.90
46137;DHT22;31871;49.418;8.752;2022-09-01T07:55:20;19.90;99.90
46137;DHT22;31871;49.418;8.752;2022-09-01T07:57:46;20.00;99.90
46137;DHT22;31871;49.418;8.752;2022-09-01T08:00:16;20.10;99.90
46137;DHT22;31871;49.418;8.752;2022-09-01T08:02:42;20.20;99.90
46137;DHT22;31871;49.418;8.752;2022-09-01T08:05:11;20.30;99.90
46137;DHT22;31871;49.418;8.752;2022-09-01T08:07:37;20.30;99.90
46137;DHT22;31871;49.418;8.752;2022-09-01T08:10:04;20.20;99.90
46137;DHT22;31871;49.418;8.752;2022-09-01T08:12:30;20.20;99.90
46137;DHT22;31871;49.418;8.752;2022-09-01T08:14:56;20.20;99.90
46137;DHT22;31871;49.418;8.752;2022-09-01T08:17:22;20.20;99.90
46137;DHT22;31871;49.418;8.752;2022-09-01T08:19:48;20.20;99.90
46137;DHT22;31871;49.418;8.752;2022-09-01T08:22:14;20.20;99.90
46137;DHT22;31871;49.418;8.752;2022-09-01T08:24:41;20.30;99.90
46137;DHT22;31871;49.418;8.752;2022-09-01T08:27:07;20.30;99.90
46137;DHT22;31871;49.418;8.752;2022-09-01T08:29:33;20.40;99.90
46137;DHT22;31871;49.418;8.752;2022-09-01T08:31:58;20.50;99.90
46137;DHT22;31871;49.418;8.752;2022-09-01T08:34:25;20.60;99.90
46137;DHT22;31871;49.418;8.752;2022-09-01T08:36:51;20.70;99.90
46137;DHT22;31871;49.418;8.752;2022-09-01T08:39:17;20.90;99.90
46137;DHT22;31871;49.418;8.752;2022-09-01T08:41:56;20.80;99.90
46137;DHT22;31871;49.418;8.752;2022-09-01T08:47:08;21.00;99.90
46137;DHT22;31871;49.418;8.752;2022-09-01T08:49:36;21.00;99.90
46137;DHT22;31871;49.418;8.752;2022-09-01T08:55:09;21.10;99.90
46137;DHT22;31871;49.418;8.752;2022-09-01T08:57:41;21.10;99.90
46137;DHT22;31871;49.418;8.752;2022-09-01T09:00:10;20.90;99.90
46137;DHT22;31871;49.418;8.752;2022-09-01T09:05:34;20.90;99.90
46137;DHT22;31871;49.418;8.752;2022-09-01T09:16:31;21.10;99.90
46137;DHT22;31871;49.418;8.752;2022-09-01T09:21:36;21.60;99.90
46137;DHT22;31871;49.418;8.752;2022-09-01T09:27:35;22.00;99.90
46137;DHT22;31871;49.418;8.752;2022-09-01T09:30:06;22.00;99.90
46137;DHT22;31871;49.418;8.752;2022-09-01T09:35:26;22.20;99.90
46137;DHT22;31871;49.418;8.752;2022-09-01T09:37:52;22.40;99.90
46137;DHT22;31871;49.418;8.752;2022-09-01T09:40:22;22.50;99.90
46137;DHT22;31871;49.418;8.752;2022-09-01T09:45:26;22.50;99.90
46137;DHT22;31871;49.418;8.752;2022-09-01T09:47:54;22.60;99.90
46137;DHT22;31871;49.418;8.752;2022-09-01T09:52:46;22.70;99.60
46137;DHT22;31871;49.418;8.752;2022-09-01T09:55:30;22.70;99.50
46137;DHT22;31871;49.418;8.752;2022-09-01T09:57:59;22.80;98.90
46137;DHT22;31871;49.418;8.752;2022-09-01T10:00:29;22.80;98.40
46137;DHT22;31871;49.418;8.752;2022-09-01T10:03:07;22.60;98.40
46137;DHT22;31871;49.418;8.752;2022-09-01T10:05:40;22.50;98.70
46137;DHT22;31871;49.418;8.752;2022-09-01T10:08:10;22.40;98.90
46137;DHT22;31871;49.418;8.752;2022-09-01T10:10:41;22.20;98.60
46137;DHT22;31871;49.418;8.752;2022-09-01T10:13:17;22.00;99.10
46137;DHT22;31871;49.418;8.752;2022-09-01T10:15:47;22.00;99.30
46137;DHT22;31871;49.418;8.752;2022-09-01T10:18:16;22.10;99.50
46137;DHT22;31871;49.418;8.752;2022-09-01T10:20:52;22.10;99.30
46137;DHT22;31871;49.418;8.752;2022-09-01T10:23:20;22.20;99.20
46137;DHT22;31871;49.418;8.752;2022-09-01T10:25:47;22.30;99.00
46137;DHT22;31871;49.418;8.752;2022-09-01T10:28:17;22.30;98.80
46137;DHT22;31871;49.418;8.752;2022-09-01T10:30:46;22.30;98.80
46137;DHT22;31871;49.418;8.752;2022-09-01T10:33:14;22.30;98.90
46137;DHT22;31871;49.418;8.752;2022-09-01T10:35:42;22.30;98.80
46137;DHT22;31871;49.418;8.752;2022-09-01T10:38:17;22.30;98.90
46137;DHT22;31871;49.418;8.752;2022-09-01T10:40:46;22.20;99.00
46137;DHT22;31871;49.418;8.752;2022-09-01T10:43:32;22.10;99.20
46137;DHT22;31871;49.418;8.752;2022-09-01T10:45:59;22.10;99.40
46137;DHT22;31871;49.418;8.752;2022-09-01T10:48:33;22.00;99.30
46137;DHT22;31871;49.418;8.752;2022-09-01T10:53:40;21.90;99.50
46137;DHT22;31871;49.418;8.752;2022-09-01T10:59:05;22.40;99.20
46137;DHT22;31871;49.418;8.752;2022-09-01T11:04:07;23.40;96.00
46137;DHT22;31871;49.418;8.752;2022-09-01T11:09:41;23.60;95.90
46137;DHT22;31871;49.418;8.752;2022-09-01T11:15:31;24.00;94.80
46137;DHT22;31871;49.418;8.752;2022-09-01T11:20:36;23.50;94.90
46137;DHT22;31871;49.418;8.752;2022-09-01T11:23:27;23.30;95.40
46137;DHT22;31871;49.418;8.752;2022-09-01T11:26:01;23.00;96.20
46137;DHT22;31871;49.418;8.752;2022-09-01T11:42:10;24.30;93.00
46137;DHT22;31871;49.418;8.752;2022-09-01T11:47:41;24.80;92.40
46137;DHT22;31871;49.418;8.752;2022-09-01T11:50:29;24.90;92.20
46137;DHT22;31871;49.418;8.752;2022-09-01T11:53:02;25.00;91.60
46137;DHT22;31871;49.418;8.752;2022-09-01T11:55:36;25.10;90.20
46137;DHT22;31871;49.418;8.752;2022-09-01T11:58:03;25.10;90.50
46137;DHT22;31871;49.418;8.752;2022-09-01T12:00:40;25.20;90.00
46137;DHT22;31871;49.418;8.752;2022-09-01T12:03:23;25.00;89.00
46137;DHT22;31871;49.418;8.752;2022-09-01T12:05:55;24.60;90.20
46137;DHT22;31871;49.418;8.752;2022-09-01T12:08:25;24.40;90.80
46137;DHT22;31871;49.418;8.752;2022-09-01T12:13:30;25.00;89.90
46137;DHT22;31871;49.418;8.752;2022-09-01T12:16:04;25.40;89.70
46137;DHT22;31871;49.418;8.752;2022-09-01T12:18:33;25.70;86.30
46137;DHT22;31871;49.418;8.752;2022-09-01T12:21:01;25.60;85.00
46137;DHT22;31871;49.418;8.752;2022-09-01T12:23:37;25.40;85.50
46137;DHT22;31871;49.418;8.752;2022-09-01T12:26:07;25.20;85.00
46137;DHT22;31871;49.418;8.752;2022-09-01T12:28:34;25.40;85.50
46137;DHT22;31871;49.418;8.752;2022-09-01T12:31:05;25.70;85.50
46137;DHT22;31871;49.418;8.752;2022-09-01T12:33:33;26.00;82.90
46137;DHT22;31871;49.418;8.752;2022-09-01T12:36:20;26.20;82.80
46137;DHT22;31871;49.418;8.752;2022-09-01T12:38:47;26.40;82.00
46137;DHT22;31871;49.418;8.752;2022-09-01T12:41:34;26.50;81.00
46137;DHT22;31871;49.418;8.752;2022-09-01T12:46:51;26.30;79.80
46137;DHT22;31871;49.418;8.752;2022-09-01T12:49:22;26.00;80.00
46137;DHT22;31871;49.418;8.752;2022-09-01T12:52:04;25.90;80.50
46137;DHT22;31871;49.418;8.752;2022-09-01T12:54:30;26.00;78.10
46137;DHT22;31871;49.418;8.752;2022-09-01T12:56:56;26.20;77.60
46137;DHT22;31871;49.418;8.752;2022-09-01T12:59:24;26.60;76.60
46137;DHT22;31871;49.418;8.752;2022-09-01T13:01:51;26.80;75.00
46137;DHT22;31871;49.418;8.752;2022-09-01T13:06:49;27.20;73.30
46137;DHT22;31871;49.418;8.752;2022-09-01T13:09:15;27.40;74.40
46137;DHT22;31871;49.418;8.752;2022-09-01T13:11:41;27.60;73.10
46137;DHT22;31871;49.418;8.752;2022-09-01T13:14:08;27.60;73.70
46137;DHT22;31871;49.418;8.752;2022-09-01T13:16:34;27.50;74.10
46137;DHT22;31871;49.418;8.752;2022-09-01T13:19:01;27.30;74.70
46137;DHT22;31871;49.418;8.752;2022-09-01T13:21:27;27.20;73.80
46137;DHT22;31871;49.418;8.752;2022-09-01T13:23:54;27.20;73.00
46137;DHT22;31871;49.418;8.752;2022-09-01T13:26:19;27.00;72.70
46137;DHT22;31871;49.418;8.752;2022-09-01T13:28:45;26.80;72.90
46137;DHT22;31871;49.418;8.752;2022-09-01T13:31:11;26.60;74.20
46137;DHT22;31871;49.418;8.752;2022-09-01T13:33:37;26.40;76.30
46137;DHT22;31871;49.418;8.752;2022-09-01T13:36:04;26.20;76.20
46137;DHT22;31871;49.418;8.752;2022-09-01T13:38:30;26.30;75.70
46137;DHT22;31871;49.418;8.752;2022-09-01T13:40:57;26.20;75.50
46137;DHT22;31871;49.418;8.752;2022-09-01T13:43:23;26.10;76.90
46137;DHT22;31871;49.418;8.752;2022-09-01T13:45:50;26.20;76.30
46137;DHT22;31871;49.418;8.752;2022-09-01T13:48:16;26.40;74.50
46137;DHT22;31871;49.418;8.752;2022-09-01T13:50:44;26.70;74.50
46137;DHT22;31871;49.418;8.752;2022-09-01T13:53:10;26.90;72.60
46137;DHT22;31871;49.418;8.752;2022-09-01T13:55:38;27.00;73.10
46137;DHT22;31871;49.418;8.752;2022-09-01T13:58:04;27.10;72.30
46137;DHT22;31871;49.418;8.752;2022-09-01T14:00:33;27.20;71.30
46137;DHT22;31871;49.418;8.752;2022-09-01T14:03:04;27.30;70.70
46137;DHT22;31871;49.418;8.752;2022-09-01T14:05:33;27.30;71.20
46137;DHT22;31871;49.418;8.752;2022-09-01T14:07:59;27.50;70.90
46137;DHT22;31871;49.418;8.752;2022-09-01T14:10:28;27.50;70.50
46137;DHT22;31871;49.418;8.752;2022-09-01T14:12:54;27.60;69.80
46137;DHT22;31871;49.418;8.752;2022-09-01T14:15:20;27.90;67.50
46137;DHT22;31871;49.418;8.752;2022-09-01T14:17:49;28.00;67.30
46137;DHT22;31871;49.418;8.752;2022-09-01T14:20:21;27.90;66.20
46137;DHT22;31871;49.418;8.752;2022-09-01T14:22:48;28.00;67.60
46137;DHT22;31871;49.418;8.752;2022-09-01T14:25:16;28.20;68.30
46137;DHT22;31871;49.418;8.752;2022-09-01T14:27:42;28.20;64.60
46137;DHT22;31871;49.418;8.752;2022-09-01T14:30:10;27.80;65.20
46137;DHT22;31871;49.418;8.752;2022-09-01T14:32:36;27.60;67.20
46137;DHT22;31871;49.418;8.752;2022-09-01T14:35:03;27.30;67.60
46137;DHT22;31871;49.418;8.752;2022-09-01T14:37:28;27.00;68.10
46137;DHT22;31871;49.418;8.752;2022-09-01T14:39:56;26.80;68.80
46137;DHT22;31871;49.418;8.752;2022-09-01T14:42:22;26.70;68.40
46137;DHT22;31871;49.418;8.752;2022-09-01T14:44:50;26.60;69.90
46137;DHT22;31871;49.418;8.752;2022-09-01T14:47:16;26.50;71.00
46137;DHT22;31871;49.418;8.752;2022-09-01T14:49:42;26.40;69.90
46137;DHT22;31871;49.418;8.752;2022-09-01T14:52:09;26.20;70.60
46137;DHT22;31871;49.418;8.752;2022-09-01T14:54:36;26.10;71.00
46137;DHT22;31871;49.418;8.752;2022-09-01T14:57:03;26.00;71.50
46137;DHT22;31871;49.418;8.752;2022-09-01T14:59:28;25.90;72.20
46137;DHT22;31871;49.418;8.752;2022-09-01T15:01:54;25.80;72.70
46137;DHT22;31871;49.418;8.752;2022-09-01T15:04:20;25.70;72.50
46137;DHT22;31871;49.418;8.752;2022-09-01T15:06:45;25.70;74.60
46137;DHT22;31871;49.418;8.752;2022-09-01T15:09:11;25.70;73.80
46137;DHT22;31871;49.418;8.752;2022-09-01T15:11:36;25.70;73.70
46137;DHT22;31871;49.418;8.752;2022-09-01T15:14:03;25.70;73.70
46137;DHT22;31871;49.418;8.752;2022-09-01T15:16:28;25.70;73.70
46137;DHT22;31871;49.418;8.752;2022-09-01T15:18:54;25.70;73.60
46137;DHT22;31871;49.418;8.752;2022-09-01T15:21:29;25.70;72.80
46137;DHT22;31871;49.418;8.752;2022-09-01T15:24:00;25.70;73.40
46137;DHT22;31871;49.418;8.752;2022-09-01T15:26:27;25.70;72.70
46137;DHT22;31871;49.418;8.752;2022-09-01T15:28:52;25.60;72.20
46137;DHT22;31871;49.418;8.752;2022-09-01T15:31:20;25.50;71.70
46137;DHT22;31871;49.418;8.752;2022-09-01T15:33:46;25.50;71.40
46137;DHT22;31871;49.418;8.752;2022-09-01T15:36:17;25.70;70.20
46137;DHT22;31871;49.418;8.752;2022-09-01T15:38:43;25.70;70.00
46137;DHT22;31871;49.418;8.752;2022-09-01T15:41:13;25.70;69.80
46137;DHT22;31871;49.418;8.752;2022-09-01T15:43:39;25.60;70.10
46137;DHT22;31871;49.418;8.752;2022-09-01T15:46:05;25.50;70.00
46137;DHT22;31871;49.418;8.752;2022-09-01T15:48:30;25.50;70.50
46137;DHT22;31871;49.418;8.752;2022-09-01T15:53:47;25.40;69.80
46137;DHT22;31871;49.418;8.752;2022-09-01T15:56:13;25.30;69.30
46137;DHT22;31871;49.418;8.752;2022-09-01T15:58:38;25.30;69.50
46137;DHT22;31871;49.418;8.752;2022-09-01T16:01:04;25.30;68.80
46137;DHT22;31871;49.418;8.752;2022-09-01T16:03:30;25.40;68.00
46137;DHT22;31871;49.418;8.752;2022-09-01T16:05:59;25.50;67.70
46137;DHT22;31871;49.418;8.752;2022-09-01T16:08:25;25.50;67.60
46137;DHT22;31871;49.418;8.752;2022-09-01T16:10:50;25.50;67.80
46137;DHT22;31871;49.418;8.752;2022-09-01T16:13:16;25.70;68.00
46137;DHT22;31871;49.418;8.752;2022-09-01T16:15:50;25.70;67.70
46137;DHT22;31871;49.418;8.752;2022-09-01T16:18:47;25.70;68.30
46137;DHT22;31871;49.418;8.752;2022-09-01T16:23:43;25.60;68.00
46137;DHT22;31871;49.418;8.752;2022-09-01T16:26:08;25.50;68.50
46137;DHT22;31871;49.418;8.752;2022-09-01T16:28:37;25.50;69.30
46137;DHT22;31871;49.418;8.752;2022-09-01T16:31:09;25.50;68.80
46137;DHT22;31871;49.418;8.752;2022-09-01T16:33:36;25.60;68.60
46137;DHT22;31871;49.418;8.752;2022-09-01T16:47:05;25.50;69.80
46137;DHT22;31871;49.418;8.752;2022-09-01T16:52:27;25.40;69.40
46137;DHT22;31871;49.418;8.752;2022-09-01T16:57:56;25.30;71.10
46137;DHT22;31871;49.418;8.752;2022-09-01T17:00:31;25.20;71.30
46137;DHT22;31871;49.418;8.752;2022-09-01T17:03:13;25.20;71.50
46137;DHT22;31871;49.418;8.752;2022-09-01T17:06:01;25.10;71.60
46137;DHT22;31871;49.418;8.752;2022-09-01T17:08:32;25.10;71.60
46137;DHT22;31871;49.418;8.752;2022-09-01T17:11:18;25.00;71.40
46137;DHT22;31871;49.418;8.752;2022-09-01T17:13:49;24.90;71.50
46137;DHT22;31871;49.418;8.752;2022-09-01T17:16:28;24.80;72.10
46137;DHT22;31871;49.418;8.752;2022-09-01T17:18:59;24.70;72.70
46137;DHT22;31871;49.418;8.752;2022-09-01T17:21:45;24.60;72.90